createdAt,value
2022-10-23T00:01:45.725Z,1.08
2022-10-23T00:06:58.709Z,1.00
2022-10-23T00:12:11.505Z,0.85
2022-10-23T00:17:26.539Z,0.90
2022-10-23T00:22:38.403Z,0.80
2022-10-23T00:27:50.393Z,1.00
2022-10-23T00:38:17.310Z,0.80
2022-10-23T00:43:34.066Z,0.60
2022-10-23T00:48:53.468Z,0.85
2022-10-23T00:59:41.062Z,0.80
2022-10-23T01:04:58.560Z,0.90
2022-10-23T01:10:17.952Z,0.90
2022-10-23T01:15:37.347Z,0.80
2022-10-23T01:20:56.619Z,0.75
2022-10-23T01:26:22.999Z,0.50
2022-10-23T01:31:43.089Z,0.75
2022-10-23T01:36:58.318Z,0.57
2022-10-23T01:42:16.324Z,4.88
2022-10-23T01:47:38.345Z,1.00
2022-10-23T01:52:52.519Z,0.50
2022-10-23T01:58:10.340Z,0.80
2022-10-23T02:03:28.968Z,0.63
2022-10-23T02:08:42.934Z,0.60
2022-10-23T02:14:03.374Z,0.50
2022-10-23T02:19:25.657Z,0.55
2022-10-23T02:24:42.939Z,0.60
2022-10-23T02:29:59.350Z,0.50
2022-10-23T02:35:18.284Z,0.82
2022-10-23T02:40:34.883Z,0.47
2022-10-23T02:45:54.436Z,0.50
2022-10-23T02:51:13.825Z,0.30
2022-10-23T02:56:34.516Z,0.57
2022-10-23T03:01:57.471Z,0.60
2022-10-23T03:07:14.730Z,0.50
2022-10-23T03:12:28.792Z,0.68
2022-10-23T03:17:42.667Z,0.40
2022-10-23T03:23:00.752Z,0.30
2022-10-23T03:28:15.274Z,0.40
2022-10-23T03:33:29.944Z,0.77
2022-10-23T03:38:47.377Z,0.70
2022-10-23T03:44:01.350Z,0.30
2022-10-23T03:49:15.229Z,0.40
2022-10-23T03:54:34.040Z,0.30
2022-10-23T03:59:47.901Z,0.50
2022-10-23T04:05:01.931Z,0.30
2022-10-23T04:10:19.421Z,0.25
2022-10-23T04:15:31.818Z,0.30
2022-10-23T04:20:45.249Z,0.67
2022-10-23T04:26:04.929Z,0.35
2022-10-23T04:31:18.515Z,0.32
2022-10-23T04:36:31.556Z,0.35
2022-10-23T04:41:48.175Z,0.30
2022-10-23T04:47:00.955Z,0.30
2022-10-23T04:52:13.895Z,0.25
2022-10-23T04:57:24.559Z,0.50
2022-10-23T05:02:32.642Z,0.40
2022-10-23T05:07:41.024Z,0.38
2022-10-23T05:12:51.869Z,0.30
2022-10-23T05:18:01.902Z,0.20
2022-10-23T05:23:11.915Z,0.60
2022-10-23T05:28:22.795Z,0.90
2022-10-23T05:33:31.243Z,1.20
2022-10-23T05:38:40.343Z,1.33
2022-10-23T05:43:51.091Z,0.50
2022-10-23T05:54:27.792Z,1.00
2022-10-23T05:59:38.831Z,0.90
2022-10-23T06:04:46.922Z,0.80
2022-10-23T06:09:55.253Z,1.77
2022-10-23T06:15:06.113Z,1.30
2022-10-23T08:19:17.680Z,2.25
2022-10-23T08:24:26.946Z,1.67
2022-10-23T08:29:42.195Z,1.73
2022-10-23T08:34:59.907Z,0.75
2022-10-23T08:40:10.727Z,0.45
2022-10-23T08:45:36.604Z,0.65
2022-10-23T08:51:05.760Z,0.70
2022-10-23T08:56:26.696Z,0.60
2022-10-23T09:01:55.322Z,0.70
2022-10-23T09:07:26.867Z,0.70
2022-10-23T09:12:38.647Z,0.80
2022-10-23T09:17:52.233Z,0.60
2022-10-23T09:23:06.481Z,0.60
2022-10-23T09:28:22.492Z,0.70
2022-10-23T09:33:33.496Z,0.60
2022-10-23T09:38:53.597Z,0.60
2022-10-23T09:44:13.461Z,0.55
2022-10-23T09:49:28.683Z,0.60
2022-10-23T09:54:43.886Z,0.40
2022-10-23T09:59:56.517Z,0.50
2022-10-23T10:05:07.614Z,0.40
2022-10-23T10:10:21.453Z,0.40
2022-10-23T10:15:36.113Z,0.90
2022-10-23T10:20:53.683Z,0.73
2022-10-23T10:26:17.305Z,0.65
2022-10-23T10:31:33.020Z,0.30
2022-10-23T10:36:49.619Z,0.52
2022-10-23T10:42:20.287Z,0.50
2022-10-23T10:47:36.594Z,0.60
2022-10-23T10:52:52.639Z,0.38
2022-10-23T10:58:09.731Z,0.45
2022-10-23T11:03:39.024Z,0.60
2022-10-23T11:08:57.188Z,0.32
2022-10-23T11:14:09.913Z,0.60
2022-10-23T11:19:23.095Z,0.50
2022-10-23T11:25:04.257Z,0.60
2022-10-23T11:30:27.158Z,0.60
2022-10-23T11:36:02.027Z,0.60
2022-10-23T11:41:26.620Z,0.55
2022-10-23T11:46:43.697Z,0.60
2022-10-23T11:51:52.225Z,0.43
2022-10-23T11:57:10.868Z,0.40
2022-10-23T12:02:32.829Z,0.30
2022-10-23T12:07:44.304Z,0.50
2022-10-23T12:13:01.980Z,0.40
2022-10-23T12:18:20.489Z,0.63
2022-10-23T12:24:15.908Z,0.40
2022-10-23T12:29:36.025Z,0.60
2022-10-23T12:34:53.631Z,0.52
2022-10-23T12:40:04.107Z,0.30
2022-10-23T12:45:24.152Z,0.20
2022-10-23T12:50:38.806Z,0.45
2022-10-23T12:55:53.687Z,0.30
2022-10-23T13:01:04.805Z,0.35
2022-10-23T13:06:17.927Z,1.00
2022-10-23T13:11:29.924Z,0.40
2022-10-23T13:16:38.213Z,0.60
2022-10-23T13:21:52.419Z,0.40
2022-10-23T13:27:00.794Z,2.25
2022-10-23T13:32:16.475Z,0.40
2022-10-23T13:37:32.737Z,0.40
2022-10-23T13:42:41.574Z,0.50
2022-10-23T13:47:49.979Z,0.40
2022-10-23T13:53:02.427Z,0.50
2022-10-23T13:58:12.392Z,0.38
2022-10-23T14:03:25.995Z,1.05
2022-10-23T14:08:38.125Z,0.60
2022-10-23T14:13:48.462Z,0.75
2022-10-23T14:18:57.682Z,0.80
2022-10-23T14:24:10.221Z,0.80
2022-10-23T14:29:23.818Z,0.90
2022-10-23T14:34:34.398Z,0.82
2022-10-23T14:39:49.788Z,0.70
2022-10-23T14:44:59.031Z,0.70
2022-10-23T14:50:08.231Z,0.63
2022-10-23T14:55:20.567Z,1.02
2022-10-23T15:00:30.133Z,0.67
2022-10-23T15:05:39.392Z,1.00
2022-10-23T15:10:51.563Z,0.80
2022-10-23T15:16:09.087Z,0.80
2022-10-23T15:21:19.684Z,0.95
2022-10-23T15:26:32.966Z,1.00
2022-10-23T15:31:50.751Z,1.20
2022-10-23T15:37:03.058Z,1.15
2022-10-23T15:42:16.322Z,1.42
2022-10-23T15:47:27.179Z,2.20
2022-10-23T15:52:37.329Z,1.50
2022-10-23T15:57:49.696Z,1.90
2022-10-23T16:02:59.422Z,1.75
2022-10-23T16:08:08.678Z,2.03
2022-10-23T16:13:19.971Z,1.80
2022-10-23T16:18:29.093Z,1.90
2022-10-23T16:23:39.185Z,1.58
2022-10-23T16:28:52.292Z,1.88
2022-10-23T16:34:02.269Z,1.40
2022-10-23T16:39:13.674Z,1.60
2022-10-23T16:44:26.260Z,2.13
2022-10-23T16:49:35.526Z,1.52
2022-10-23T16:54:45.011Z,1.55
2022-10-23T16:59:57.649Z,1.30
2022-10-23T17:05:07.680Z,1.50
2022-10-23T17:10:18.030Z,1.45
2022-10-23T17:15:30.293Z,1.40
2022-10-23T17:25:47.498Z,1.02
2022-10-23T17:31:00.048Z,1.60
2022-10-23T17:36:08.512Z,1.58
2022-10-23T17:41:22.919Z,1.70
2022-10-23T17:46:35.050Z,1.08
2022-10-23T17:51:44.888Z,1.55
2022-10-23T17:56:53.448Z,1.30
2022-10-23T18:02:05.991Z,1.40
2022-10-23T18:07:15.327Z,2.20
2022-10-23T18:12:24.179Z,3.03
2022-10-23T18:17:42.720Z,2.35
2022-10-23T18:22:56.417Z,2.90
2022-10-23T18:33:29.486Z,2.22
2022-10-23T18:38:44.536Z,1.95
2022-10-23T18:43:59.679Z,1.73
2022-10-23T18:49:20.611Z,1.45
2022-10-23T18:54:35.402Z,1.53
2022-10-23T18:59:56.114Z,1.33
2022-10-23T19:05:15.575Z,1.38
2022-10-23T19:10:31.546Z,1.20
2022-10-23T19:15:47.713Z,0.93
2022-10-23T19:21:12.379Z,1.20
2022-10-23T19:26:28.086Z,1.30
2022-10-23T19:31:47.328Z,1.08
2022-10-23T19:37:07.410Z,1.20
2022-10-23T19:42:22.984Z,1.08
2022-10-23T19:47:37.688Z,1.15
2022-10-23T19:52:57.060Z,1.20
2022-10-23T19:58:11.412Z,1.08
2022-10-23T20:03:26.994Z,1.20
2022-10-23T20:08:46.153Z,0.77
2022-10-23T20:14:00.967Z,1.08
2022-10-23T20:24:41.041Z,1.15
2022-10-23T20:29:58.181Z,1.00
2022-10-23T20:35:11.626Z,1.05
2022-10-23T20:40:39.993Z,0.90
2022-10-23T20:45:54.687Z,1.08
2022-10-23T20:51:12.456Z,0.68
2022-10-23T20:56:33.383Z,0.93
2022-10-23T21:01:54.774Z,0.65
2022-10-23T21:07:10.882Z,0.63
2022-10-23T21:12:30.518Z,0.70
2022-10-23T21:17:44.573Z,0.70
2022-10-23T21:23:03.310Z,0.95
2022-10-23T21:28:21.244Z,0.52
2022-10-23T21:33:43.782Z,0.70
2022-10-23T21:38:59.262Z,0.73
2022-10-23T21:44:18.718Z,0.82
2022-10-23T21:49:33.189Z,0.55
2022-10-23T21:54:48.460Z,0.80
2022-10-23T22:00:06.613Z,0.70
2022-10-23T22:05:25.722Z,0.80
2022-10-23T22:10:39.777Z,0.60
2022-10-23T22:16:01.623Z,0.55
2022-10-23T22:21:17.953Z,0.73
2022-10-23T22:26:35.819Z,0.50
2022-10-23T22:31:53.689Z,0.60
2022-10-23T22:37:08.581Z,0.55
2022-10-23T22:42:24.068Z,1.00
2022-10-23T22:47:43.892Z,0.60
2022-10-23T22:53:00.129Z,0.60
2022-10-23T22:58:14.708Z,0.70
2022-10-23T23:03:33.084Z,0.60
2022-10-23T23:08:49.962Z,0.80
2022-10-23T23:14:03.824Z,1.02
2022-10-23T23:19:21.653Z,0.70
2022-10-23T23:24:36.524Z,0.60
2022-10-23T23:29:51.779Z,0.47
2022-10-23T23:35:09.896Z,0.50
2022-10-23T23:40:25.834Z,0.75
2022-10-23T23:45:41.040Z,0.40
2022-10-23T23:50:59.360Z,0.40
2022-10-23T23:56:14.587Z,0.70
